Aeroporto :
LOGIN :

Iscrizione | Disclaimer

   EN    FR    IT 

 










Sommario :    VFR   VFR Marginale   IFR   IFR Intensivo   IFR Molto Intensivo
Visibilità : 
Base nubi : 
>= 8 km
>= 3000ft
5 / 8 km
1000 / 3000 ft
1500m / 5 km
500 / 1000 ft
800 / 1500m
200 / 500 ft
< 800m
< 200 ft
Simboli :   Temporali  Nebbia  Neve Forte  Precipitazioni Forti  Vento > 20 kt
SIGMETs :   Varie  Temporali  Ghiacco  Turbolenza  Onda orograficha  Ceneri Vulcaniche






- Altitudine del aeroporto : 458 ft


LFSI - St-Dizier

ULTIMO METAR :
  • 150800Z AUTO 11007KT 4700 RA BR OVC013/// ///CB 03/02 Q0997

METARs OBSOLETI :
  • 150730Z AUTO VRB02KT 2900 RA BR SCT006/// BKN014/// OVC019/// ///CB 04/04 Q0996
  • 150700Z AUTO 00000KT 4000 RA BR FEW005/// SCT012/// BKN018/// ///CB 04/04 Q0996
  • 150630Z AUTO 35001KT 4900 -RA BR FEW004/// OVC019/// ///TCU 04/03 Q0996
  • 150600Z AUTO 00000KT 5000 -RA BR BKN021/// BKN054/// OVC072/// ///TCU 04/03 Q0996
  • 150530Z AUTO 30003KT 5000 -DZ BR FEW022 BKN058 OVC070 04/04 Q0995

TAF TAF LFSI
Valido dal 15 a 03 ore il 16 a 03 ore UTC


150200Z 1503/1603 VRB03KT 4000 -RA SCT005 BKN025
TEMPO 1503/1509 36010KT 2000 BR BKN003 BKN005 BKN030
TEMPO 1505/1510 2000 RASN BKN003 BKN025 BKN035
BECMG 1510/1512 BKN015
BECMG 1520/1522 BKN008



MetMap, La meteo Aeronautica in un colpo d'occhio ! - Copyright ORBIFLY Dicembre 2007 - Disclaimer

ORBIFLY MET'MAP TEAM :

Programmazione e sviluppo : Alexandra Zaïnal
Concezione e sviluppo : Baudouin d'Aumeries
Co-Programmazione e sviluppo : Marc-Olivier Méhu
Supporto tecnico e logistico : Manuel Goepfert
Aiuto per la traduzione : Arnaldo La Scala

Contatto : metmap@orbifly.com




FONTI E CREDITI :

   NOAA